sensor_id;sensor_type;location;lat;lon;timestamp;pressure;altitude;pressure_sealevel;temperature;humidity
6020;BME280;3038;51.122;6.840;2023-12-20T00:01:02;101161.00;;;7.99;100.00
6020;BME280;3038;51.122;6.840;2023-12-20T00:03:28;101163.72;;;7.88;100.00
6020;BME280;3038;51.122;6.840;2023-12-20T00:05:53;101173.94;;;7.71;100.00
6020;BME280;3038;51.122;6.840;2023-12-20T00:08:18;101165.78;;;7.63;100.00
6020;BME280;3038;51.122;6.840;2023-12-20T00:10:44;101164.91;;;7.53;100.00
6020;BME280;3038;51.122;6.840;2023-12-20T00:13:10;101168.53;;;7.52;100.00
6020;BME280;3038;51.122;6.840;2023-12-20T00:15:35;101165.63;;;7.55;100.00
6020;BME280;3038;51.122;6.840;2023-12-20T00:18:01;101165.63;;;7.55;100.00
6020;BME280;3038;51.122;6.840;2023-12-20T00:20:27;101165.50;;;7.57;100.00
6020;BME280;3038;51.122;6.840;2023-12-20T00:22:55;101173.81;;;7.52;100.00
6020;BME280;3038;51.122;6.840;2023-12-20T00:25:21;101167.69;;;7.52;100.00
6020;BME280;3038;51.122;6.840;2023-12-20T00:27:48;101167.69;;;7.52;100.00
6020;BME280;3038;51.122;6.840;2023-12-20T00:30:13;101168.22;;;7.45;100.00
6020;BME280;3038;51.122;6.840;2023-12-20T00:32:38;101175.94;;;7.37;100.00
6020;BME280;3038;51.122;6.840;2023-12-20T00:35:04;101177.88;;;7.35;100.00
6020;BME280;3038;51.122;6.840;2023-12-20T00:37:30;101182.09;;;7.27;100.00
6020;BME280;3038;51.122;6.840;2023-12-20T00:39:55;101193.63;;;7.26;100.00
6020;BME280;3038;51.122;6.840;2023-12-20T00:42:20;101184.00;;;7.25;100.00
6020;BME280;3038;51.122;6.840;2023-12-20T00:44:46;101195.31;;;7.27;100.00
6020;BME280;3038;51.122;6.840;2023-12-20T00:47:11;101194.84;;;7.21;100.00
6020;BME280;3038;51.122;6.840;2023-12-20T00:49:37;101195.56;;;7.24;100.00
6020;BME280;3038;51.122;6.840;2023-12-20T00:52:02;101188.00;;;7.19;100.00
6020;BME280;3038;51.122;6.840;2023-12-20T00:54:27;101185.19;;;7.11;100.00
6020;BME280;3038;51.122;6.840;2023-12-20T00:56:53;101192.50;;;7.07;100.00
6020;BME280;3038;51.122;6.840;2023-12-20T00:59:19;101195.38;;;7.04;100.00
6020;BME280;3038;51.122;6.840;2023-12-20T01:01:44;101184.50;;;6.98;100.00
6020;BME280;3038;51.122;6.840;2023-12-20T01:04:09;101184.22;;;7.01;100.00
6020;BME280;3038;51.122;6.840;2023-12-20T01:06:35;101179.81;;;7.01;100.00
6020;BME280;3038;51.122;6.840;2023-12-20T01:09:00;101187.75;;;7.01;100.00
6020;BME280;3038;51.122;6.840;2023-12-20T01:11:25;101197.06;;;7.05;100.00
6020;BME280;3038;51.122;6.840;2023-12-20T01:13:51;101205.81;;;7.06;100.00
6020;BME280;3038;51.122;6.840;2023-12-20T01:16:16;101191.78;;;7.05;100.00
6020;BME280;3038;51.122;6.840;2023-12-20T01:18:41;101197.56;;;6.99;100.00
6020;BME280;3038;51.122;6.840;2023-12-20T01:21:07;101194.69;;;6.91;100.00
6020;BME280;3038;51.122;6.840;2023-12-20T01:23:32;101192.44;;;6.86;100.00
6020;BME280;3038;51.122;6.840;2023-12-20T01:25:58;101201.59;;;6.82;100.00
6020;BME280;3038;51.122;6.840;2023-12-20T01:28:25;101211.31;;;6.82;100.00
6020;BME280;3038;51.122;6.840;2023-12-20T01:30:51;101215.47;;;6.84;100.00
6020;BME280;3038;51.122;6.840;2023-12-20T01:33:16;101212.47;;;6.89;100.00
6020;BME280;3038;51.122;6.840;2023-12-20T01:35:41;101211.97;;;6.95;100.00
6020;BME280;3038;51.122;6.840;2023-12-20T01:38:07;101210.75;;;6.99;100.00
6020;BME280;3038;51.122;6.840;2023-12-20T01:40:32;101207.88;;;7.02;100.00
6020;BME280;3038;51.122;6.840;2023-12-20T01:43:03;101225.53;;;7.02;100.00
6020;BME280;3038;51.122;6.840;2023-12-20T01:45:30;101220.34;;;7.00;100.00
6020;BME280;3038;51.122;6.840;2023-12-20T01:47:58;101222.53;;;6.95;100.00
6020;BME280;3038;51.122;6.840;2023-12-20T01:50:24;101226.13;;;6.94;100.00
6020;BME280;3038;51.122;6.840;2023-12-20T01:52:50;101224.47;;;6.93;100.00
6020;BME280;3038;51.122;6.840;2023-12-20T01:55:19;101229.50;;;6.85;100.00
6020;BME280;3038;51.122;6.840;2023-12-20T01:57:45;101234.56;;;6.77;100.00
6020;BME280;3038;51.122;6.840;2023-12-20T02:00:12;101225.59;;;6.68;100.00
6020;BME280;3038;51.122;6.840;2023-12-20T02:02:39;101235.06;;;6.59;100.00
6020;BME280;3038;51.122;6.840;2023-12-20T02:05:06;101234.59;;;6.54;100.00
6020;BME280;3038;51.122;6.840;2023-12-20T02:07:32;101238.66;;;6.47;100.00
6020;BME280;3038;51.122;6.840;2023-12-20T02:09:58;101235.56;;;6.42;100.00
6020;BME280;3038;51.122;6.840;2023-12-20T02:12:23;101241.31;;;6.36;100.00
6020;BME280;3038;51.122;6.840;2023-12-20T02:14:49;101251.63;;;6.39;100.00
6020;BME280;3038;51.122;6.840;2023-12-20T02:17:15;101251.88;;;6.36;100.00
6020;BME280;3038;51.122;6.840;2023-12-20T02:19:41;101230.50;;;6.28;100.00
6020;BME280;3038;51.122;6.840;2023-12-20T02:22:08;101239.53;;;6.25;100.00
6020;BME280;3038;51.122;6.840;2023-12-20T02:24:33;101247.78;;;6.21;100.00
6020;BME280;3038;51.122;6.840;2023-12-20T02:26:59;101247.31;;;6.15;100.00
6020;BME280;3038;51.122;6.840;2023-12-20T02:29:24;101248.50;;;6.11;100.00
6020;BME280;3038;51.122;6.840;2023-12-20T02:31:50;101248.00;;;6.06;100.00
6020;BME280;3038;51.122;6.840;2023-12-20T02:34:15;101251.13;;;6.00;100.00
6020;BME280;3038;51.122;6.840;2023-12-20T02:36:41;101260.56;;;6.03;100.00
6020;BME280;3038;51.122;6.840;2023-12-20T02:39:06;101255.91;;;6.06;100.00
6020;BME280;3038;51.122;6.840;2023-12-20T02:41:31;101260.97;;;6.09;100.00
6020;BME280;3038;51.122;6.840;2023-12-20T02:43:57;101255.69;;;6.09;100.00
6020;BME280;3038;51.122;6.840;2023-12-20T02:46:23;101252.94;;;6.11;100.00
6020;BME280;3038;51.122;6.840;2023-12-20T02:48:48;101250.41;;;6.09;100.00
6020;BME280;3038;51.122;6.840;2023-12-20T02:51:13;101259.03;;;6.11;100.00
6020;BME280;3038;51.122;6.840;2023-12-20T02:53:39;101253.53;;;6.14;100.00
6020;BME280;3038;51.122;6.840;2023-12-20T02:56:04;101264.66;;;6.18;100.00
6020;BME280;3038;51.122;6.840;2023-12-20T02:58:29;101253.06;;;6.21;100.00
6020;BME280;3038;51.122;6.840;2023-12-20T03:00:55;101250.28;;;6.22;100.00
6020;BME280;3038;51.122;6.840;2023-12-20T03:03:20;101256.41;;;6.23;100.00
6020;BME280;3038;51.122;6.840;2023-12-20T03:05:45;101253.91;;;6.21;100.00
6020;BME280;3038;51.122;6.840;2023-12-20T03:08:11;101260.00;;;6.22;100.00
6020;BME280;3038;51.122;6.840;2023-12-20T03:10:37;101247.78;;;6.21;100.00
6020;BME280;3038;51.122;6.840;2023-12-20T03:13:02;101250.41;;;6.21;100.00
6020;BME280;3038;51.122;6.840;2023-12-20T03:15:27;101244.19;;;6.22;100.00
6020;BME280;3038;51.122;6.840;2023-12-20T03:17:53;101258.34;;;6.21;100.00
6020;BME280;3038;51.122;6.840;2023-12-20T03:20:18;101252.56;;;6.15;100.00
6020;BME280;3038;51.122;6.840;2023-12-20T03:22:43;101248.50;;;6.11;100.00
6020;BME280;3038;51.122;6.840;2023-12-20T03:25:09;101255.69;;;6.09;100.00
6020;BME280;3038;51.122;6.840;2023-12-20T03:27:37;101244.63;;;6.04;100.00
6020;BME280;3038;51.122;6.840;2023-12-20T03:30:03;101243.91;;;6.02;100.00
6020;BME280;3038;51.122;6.840;2023-12-20T03:32:28;101247.75;;;5.98;100.00
6020;BME280;3038;51.122;6.840;2023-12-20T03:34:54;101247.13;;;5.95;100.00
6020;BME280;3038;51.122;6.840;2023-12-20T03:37:19;101252.41;;;5.95;100.00
6020;BME280;3038;51.122;6.840;2023-12-20T03:39:44;101247.38;;;5.91;100.00
6020;BME280;3038;51.122;6.840;2023-12-20T03:42:10;101241.25;;;5.91;100.00
6020;BME280;3038;51.122;6.840;2023-12-20T03:44:38;101235.97;;;5.91;100.00
6020;BME280;3038;51.122;6.840;2023-12-20T03:47:03;101244.84;;;5.90;100.00
6020;BME280;3038;51.122;6.840;2023-12-20T03:49:29;101236.19;;;5.88;100.00
6020;BME280;3038;51.122;6.840;2023-12-20T03:51:54;101235.59;;;5.84;100.00
6020;BME280;3038;51.122;6.840;2023-12-20T03:54:19;101249.84;;;5.82;100.00
6020;BME280;3038;51.122;6.840;2023-12-20T03:56:45;101237.84;;;5.78;100.00
6020;BME280;3038;51.122;6.840;2023-12-20T03:59:10;101236.66;;;5.82;100.00
6020;BME280;3038;51.122;6.840;2023-12-20T04:01:35;101234.75;;;5.84;100.00
6020;BME280;3038;51.122;6.840;2023-12-20T04:04:01;101237.88;;;5.89;100.00
6020;BME280;3038;51.122;6.840;2023-12-20T04:06:27;101244.63;;;5.93;100.00
6020;BME280;3038;51.122;6.840;2023-12-20T04:08:53;101244.63;;;5.93;100.00
6020;BME280;3038;51.122;6.840;2023-12-20T04:11:18;101246.91;;;5.98;100.00
6020;BME280;3038;51.122;6.840;2023-12-20T04:13:44;101252.91;;;6.00;100.00
6020;BME280;3038;51.122;6.840;2023-12-20T04:16:09;101241.75;;;5.96;100.00
6020;BME280;3038;51.122;6.840;2023-12-20T04:18:34;101237.69;;;5.92;100.00
6020;BME280;3038;51.122;6.840;2023-12-20T04:21:00;101237.03;;;5.88;100.00
6020;BME280;3038;51.122;6.840;2023-12-20T04:23:25;101245.91;;;5.87;100.00
6020;BME280;3038;51.122;6.840;2023-12-20T04:25:50;101244.09;;;5.88;100.00
6020;BME280;3038;51.122;6.840;2023-12-20T04:28:16;101237.38;;;5.84;100.00
6020;BME280;3038;51.122;6.840;2023-12-20T04:30:42;101246.25;;;5.83;100.00
6020;BME280;3038;51.122;6.840;2023-12-20T04:33:07;101240.00;;;5.84;100.00
6020;BME280;3038;51.122;6.840;2023-12-20T04:35:32;101241.69;;;5.85;100.00
6020;BME280;3038;51.122;6.840;2023-12-20T04:37:58;101247.91;;;5.84;100.00
6020;BME280;3038;51.122;6.840;2023-12-20T04:40:23;101257.50;;;5.85;100.00
6020;BME280;3038;51.122;6.840;2023-12-20T04:42:48;101248.88;;;5.83;100.00
6020;BME280;3038;51.122;6.840;2023-12-20T04:45:14;101249.09;;;5.80;100.00
6020;BME280;3038;51.122;6.840;2023-12-20T04:47:41;101250.81;;;5.81;100.00
6020;BME280;3038;51.122;6.840;2023-12-20T04:50:07;101252.47;;;5.82;100.00
6020;BME280;3038;51.122;6.840;2023-12-20T04:52:33;101245.53;;;5.81;100.00
6020;BME280;3038;51.122;6.840;2023-12-20T04:54:58;101252.97;;;5.87;100.00
6020;BME280;3038;51.122;6.840;2023-12-20T04:57:24;101248.41;;;5.89;100.00
6020;BME280;3038;51.122;6.840;2023-12-20T04:59:50;101247.47;;;5.90;100.00
6020;BME280;3038;51.122;6.840;2023-12-20T05:02:15;101254.31;;;5.92;100.00
6020;BME280;3038;51.122;6.840;2023-12-20T05:04:41;101245.38;;;5.95;100.00
6020;BME280;3038;51.122;6.840;2023-12-20T05:07:06;101254.09;;;5.96;100.00
6020;BME280;3038;51.122;6.840;2023-12-20T05:09:32;101253.28;;;5.95;100.00
6020;BME280;3038;51.122;6.840;2023-12-20T05:11:57;101248.22;;;5.92;100.00
6020;BME280;3038;51.122;6.840;2023-12-20T05:14:23;101246.13;;;5.84;100.00
6020;BME280;3038;51.122;6.840;2023-12-20T05:16:48;101253.66;;;5.78;100.00
6020;BME280;3038;51.122;6.840;2023-12-20T05:19:13;101252.94;;;5.76;100.00
6020;BME280;3038;51.122;6.840;2023-12-20T05:21:39;101242.75;;;5.71;100.00
6020;BME280;3038;51.122;6.840;2023-12-20T05:24:04;101246.44;;;5.68;100.00
6020;BME280;3038;51.122;6.840;2023-12-20T05:26:30;101245.59;;;5.68;100.00
6020;BME280;3038;51.122;6.840;2023-12-20T05:28:55;101235.91;;;5.68;100.00
6020;BME280;3038;51.122;6.840;2023-12-20T05:31:21;101244.16;;;5.64;100.00
6020;BME280;3038;51.122;6.840;2023-12-20T05:33:46;101244.03;;;5.65;100.00
6020;BME280;3038;51.122;6.840;2023-12-20T05:36:11;101252.81;;;5.66;100.00
6020;BME280;3038;51.122;6.840;2023-12-20T05:38:38;101251.72;;;5.68;100.00
6020;BME280;3038;51.122;6.840;2023-12-20T05:41:04;101247.06;;;5.72;100.00
6020;BME280;3038;51.122;6.840;2023-12-20T05:43:29;101238.19;;;5.73;100.00
6020;BME280;3038;51.122;6.840;2023-12-20T05:45:55;101236.88;;;5.79;100.00
6020;BME280;3038;51.122;6.840;2023-12-20T05:48:20;101245.06;;;5.87;100.00
6020;BME280;3038;51.122;6.840;2023-12-20T05:50:45;101246.50;;;5.91;100.00
6020;BME280;3038;51.122;6.840;2023-12-20T05:53:11;101260.22;;;5.96;100.00
6020;BME280;3038;51.122;6.840;2023-12-20T05:55:36;101252.78;;;6.01;100.00
6020;BME280;3038;51.122;6.840;2023-12-20T05:58:02;101248.97;;;6.05;100.00
6020;BME280;3038;51.122;6.840;2023-12-20T06:02:52;101234.59;;;6.09;100.00
6020;BME280;3038;51.122;6.840;2023-12-20T06:05:17;101252.09;;;6.10;100.00
6020;BME280;3038;51.122;6.840;2023-12-20T06:07:42;101246.56;;;6.13;100.00
6020;BME280;3038;51.122;6.840;2023-12-20T06:10:08;101246.34;;;6.16;100.00
6020;BME280;3038;51.122;6.840;2023-12-20T06:12:34;101254.03;;;6.20;100.00
6020;BME280;3038;51.122;6.840;2023-12-20T06:15:02;101262.63;;;6.22;100.00
6020;BME280;3038;51.122;6.840;2023-12-20T06:17:27;101264.31;;;6.23;100.00
6020;BME280;3038;51.122;6.840;2023-12-20T06:19:55;101265.06;;;6.25;100.00
6020;BME280;3038;51.122;6.840;2023-12-20T06:22:21;101260.50;;;6.27;100.00
6020;BME280;3038;51.122;6.840;2023-12-20T06:24:46;101264.56;;;6.31;100.00
6020;BME280;3038;51.122;6.840;2023-12-20T06:27:11;101262.63;;;6.33;100.00
6020;BME280;3038;51.122;6.840;2023-12-20T06:29:37;101272.13;;;6.35;100.00
6020;BME280;3038;51.122;6.840;2023-12-20T06:32:02;101258.19;;;6.33;100.00
6020;BME280;3038;51.122;6.840;2023-12-20T06:34:30;101261.94;;;6.31;100.00
6020;BME280;3038;51.122;6.840;2023-12-20T06:36:56;101261.81;;;6.32;100.00
6020;BME280;3038;51.122;6.840;2023-12-20T06:39:21;101253.53;;;6.37;100.00
6020;BME280;3038;51.122;6.840;2023-12-20T06:41:46;101261.81;;;6.43;100.00
6020;BME280;3038;51.122;6.840;2023-12-20T06:44:12;101263.59;;;6.43;100.00
6020;BME280;3038;51.122;6.840;2023-12-20T06:46:37;101265.19;;;6.46;100.00
6020;BME280;3038;51.122;6.840;2023-12-20T06:49:02;101258.09;;;6.46;100.00
6020;BME280;3038;51.122;6.840;2023-12-20T06:51:28;101262.53;;;6.46;100.00
6020;BME280;3038;51.122;6.840;2023-12-20T06:53:53;101260.03;;;6.44;100.00
6020;BME280;3038;51.122;6.840;2023-12-20T06:56:19;101265.03;;;6.47;100.00
6020;BME280;3038;51.122;6.840;2023-12-20T06:58:47;101265.03;;;6.47;100.00
6020;BME280;3038;51.122;6.840;2023-12-20T07:01:16;101260.59;;;6.48;100.00
6020;BME280;3038;51.122;6.840;2023-12-20T07:03:42;101255.22;;;6.49;100.00
6020;BME280;3038;51.122;6.840;2023-12-20T07:06:08;101264.69;;;6.52;100.00
6020;BME280;3038;51.122;6.840;2023-12-20T07:08:33;101263.63;;;6.54;100.00
6020;BME280;3038;51.122;6.840;2023-12-20T07:11:01;101267.69;;;6.58;100.00
6020;BME280;3038;51.122;6.840;2023-12-20T07:13:26;101251.13;;;6.56;100.00
6020;BME280;3038;51.122;6.840;2023-12-20T07:15:51;101266.00;;;6.57;100.00
6020;BME280;3038;51.122;6.840;2023-12-20T07:18:17;101274.53;;;6.61;100.00
6020;BME280;3038;51.122;6.840;2023-12-20T07:20:42;101272.72;;;6.61;100.00
6020;BME280;3038;51.122;6.840;2023-12-20T07:23:08;101265.78;;;6.60;100.00
6020;BME280;3038;51.122;6.840;2023-12-20T07:25:34;101258.81;;;6.59;100.00
6020;BME280;3038;51.122;6.840;2023-12-20T07:27:59;101263.25;;;6.59;100.00
6020;BME280;3038;51.122;6.840;2023-12-20T07:30:24;101249.22;;;6.58;100.00
6020;BME280;3038;51.122;6.840;2023-12-20T07:32:50;101256.19;;;6.59;100.00
6020;BME280;3038;51.122;6.840;2023-12-20T07:35:16;101254.25;;;6.61;100.00
6020;BME280;3038;51.122;6.840;2023-12-20T07:37:41;101255.22;;;6.60;100.00
6020;BME280;3038;51.122;6.840;2023-12-20T07:40:08;101257.63;;;6.63;100.00
6020;BME280;3038;51.122;6.840;2023-12-20T07:42:36;101259.28;;;6.64;100.00
6020;BME280;3038;51.122;6.840;2023-12-20T07:45:02;101252.34;;;6.63;100.00
6020;BME280;3038;51.122;6.840;2023-12-20T07:47:29;101258.31;;;6.65;100.00
6020;BME280;3038;51.122;6.840;2023-12-20T07:49:57;101256.44;;;6.67;100.00
6020;BME280;3038;51.122;6.840;2023-12-20T07:52:22;101268.41;;;6.83;100.00
6020;BME280;3038;51.122;6.840;2023-12-20T07:54:48;101254.00;;;6.76;100.00
6020;BME280;3038;51.122;6.840;2023-12-20T07:57:14;101256.06;;;6.72;100.00
6020;BME280;3038;51.122;6.840;2023-12-20T07:59:39;101268.16;;;6.75;100.00
6020;BME280;3038;51.122;6.840;2023-12-20T08:02:06;101278.72;;;6.75;100.00
6020;BME280;3038;51.122;6.840;2023-12-20T08:04:32;101263.84;;;6.74;100.00
6020;BME280;3038;51.122;6.840;2023-12-20T08:06:58;101269.25;;;6.72;100.00
6020;BME280;3038;51.122;6.840;2023-12-20T08:09:23;101270.94;;;6.73;100.00
6020;BME280;3038;51.122;6.840;2023-12-20T08:11:49;101260.38;;;6.73;100.00
6020;BME280;3038;51.122;6.840;2023-12-20T08:14:15;101281.59;;;6.72;100.00
6020;BME280;3038;51.122;6.840;2023-12-20T08:16:40;101287.13;;;6.68;100.00
6020;BME280;3038;51.122;6.840;2023-12-20T08:19:07;101272.97;;;6.69;100.00
6020;BME280;3038;51.122;6.840;2023-12-20T08:21:33;101271.28;;;6.68;100.00
6020;BME280;3038;51.122;6.840;2023-12-20T08:23:58;101276.56;;;6.68;100.00
6020;BME280;3038;51.122;6.840;2023-12-20T08:26:26;101272.34;;;6.66;100.00
6020;BME280;3038;51.122;6.840;2023-12-20T08:28:51;101268.66;;;6.68;100.00
6020;BME280;3038;51.122;6.840;2023-12-20T08:31:17;101267.91;;;6.66;100.00
6020;BME280;3038;51.122;6.840;2023-12-20T08:33:44;101272.25;;;6.67;100.00
6020;BME280;3038;51.122;6.840;2023-12-20T08:36:09;101270.56;;;6.66;100.00
6020;BME280;3038;51.122;6.840;2023-12-20T08:38:35;101273.94;;;6.68;100.00
6020;BME280;3038;51.122;6.840;2023-12-20T08:41:01;101284.47;;;6.68;100.00
6020;BME280;3038;51.122;6.840;2023-12-20T08:43:28;101277.28;;;6.70;100.00
6020;BME280;3038;51.122;6.840;2023-12-20T08:45:54;101287.81;;;6.70;100.00
6020;BME280;3038;51.122;6.840;2023-12-20T08:48:19;101294.78;;;6.72;100.00
6020;BME280;3038;51.122;6.840;2023-12-20T08:50:44;101291.66;;;6.89;100.00
6020;BME280;3038;51.122;6.840;2023-12-20T08:53:11;101286.88;;;7.37;100.00
6020;BME280;3038;51.122;6.840;2023-12-20T08:55:36;101295.94;;;7.56;100.00
6020;BME280;3038;51.122;6.840;2023-12-20T08:58:02;101283.84;;;7.74;100.00
6020;BME280;3038;51.122;6.840;2023-12-20T09:00:27;101296.78;;;7.56;100.00
6020;BME280;3038;51.122;6.840;2023-12-20T09:02:54;101283.91;;;7.19;100.00
6020;BME280;3038;51.122;6.840;2023-12-20T09:05:20;101285.16;;;7.04;100.00
6020;BME280;3038;51.122;6.840;2023-12-20T09:07:47;101286.63;;;6.97;100.00
6020;BME280;3038;51.122;6.840;2023-12-20T09:10:12;101292.25;;;6.92;100.00
6020;BME280;3038;51.122;6.840;2023-12-20T09:12:38;101280.13;;;6.90;100.00
6020;BME280;3038;51.122;6.840;2023-12-20T09:15:06;101277.50;;;6.90;100.00
6020;BME280;3038;51.122;6.840;2023-12-20T09:17:31;101270.53;;;6.89;100.00
6020;BME280;3038;51.122;6.840;2023-12-20T09:19:57;101268.88;;;6.88;100.00
6020;BME280;3038;51.122;6.840;2023-12-20T09:22:22;101265.50;;;6.86;100.00
6020;BME280;3038;51.122;6.840;2023-12-20T09:24:48;101267.19;;;6.87;100.00
6020;BME280;3038;51.122;6.840;2023-12-20T09:27:13;101268.03;;;6.87;100.00
6020;BME280;3038;51.122;6.840;2023-12-20T09:29:41;101264.28;;;6.90;100.00
6020;BME280;3038;51.122;6.840;2023-12-20T09:32:06;101270.53;;;6.89;100.00
6020;BME280;3038;51.122;6.840;2023-12-20T09:34:31;101265.88;;;6.92;100.00
6020;BME280;3038;51.122;6.840;2023-12-20T09:36:57;101268.38;;;6.94;100.00
6020;BME280;3038;51.122;6.840;2023-12-20T09:39:22;101266.69;;;6.93;100.00
6020;BME280;3038;51.122;6.840;2023-12-20T09:42:07;101274.16;;;6.88;100.00
6020;BME280;3038;51.122;6.840;2023-12-20T09:44:33;101258.03;;;6.91;100.00
6020;BME280;3038;51.122;6.840;2023-12-20T09:47:03;101265.03;;;6.92;100.00
6020;BME280;3038;51.122;6.840;2023-12-20T09:49:29;101259.00;;;6.90;100.00
6020;BME280;3038;51.122;6.840;2023-12-20T09:51:56;101266.84;;;6.91;100.00
6020;BME280;3038;51.122;6.840;2023-12-20T09:54:22;101257.81;;;6.94;100.00
6020;BME280;3038;51.122;6.840;2023-12-20T09:56:54;101259.47;;;6.95;100.00
6020;BME280;3038;51.122;6.840;2023-12-20T09:59:22;101250.59;;;6.96;100.00
6020;BME280;3038;51.122;6.840;2023-12-20T10:01:47;101259.00;;;7.01;100.00
6020;BME280;3038;51.122;6.840;2023-12-20T10:04:13;101252.88;;;7.01;100.00
6020;BME280;3038;51.122;6.840;2023-12-20T10:06:42;101265.97;;;7.02;100.00
6020;BME280;3038;51.122;6.840;2023-12-20T10:09:09;101256.09;;;7.04;100.00
6020;BME280;3038;51.122;6.840;2023-12-20T10:11:39;101265.69;;;7.05;100.00
6020;BME280;3038;51.122;6.840;2023-12-20T10:14:06;101261.84;;;7.09;100.00
6020;BME280;3038;51.122;6.840;2023-12-20T10:16:33;101259.34;;;7.08;100.00
6020;BME280;3038;51.122;6.840;2023-12-20T10:19:00;101262.81;;;7.08;100.00
6020;BME280;3038;51.122;6.840;2023-12-20T10:21:26;101267.13;;;7.09;100.00
6020;BME280;3038;51.122;6.840;2023-12-20T10:23:53;101252.97;;;7.10;100.00
6020;BME280;3038;51.122;6.840;2023-12-20T10:26:20;101256.47;;;7.11;100.00
6020;BME280;3038;51.122;6.840;2023-12-20T10:28:54;101262.59;;;7.11;100.00
6020;BME280;3038;51.122;6.840;2023-12-20T10:31:27;101261.63;;;7.12;100.00
6020;BME280;3038;51.122;6.840;2023-12-20T10:33:53;101249.38;;;7.11;100.00
6020;BME280;3038;51.122;6.840;2023-12-20T10:36:18;101236.03;;;7.13;100.00
6020;BME280;3038;51.122;6.840;2023-12-20T10:38:44;101228.25;;;7.11;100.00
6020;BME280;3038;51.122;6.840;2023-12-20T10:41:11;101229.19;;;7.10;100.00
6020;BME280;3038;51.122;6.840;2023-12-20T10:43:37;101225.50;;;7.13;100.00
6020;BME280;3038;51.122;6.840;2023-12-20T10:46:03;101225.81;;;7.19;100.00
6020;BME280;3038;51.122;6.840;2023-12-20T10:48:30;101213.56;;;7.18;100.00
6020;BME280;3038;51.122;6.840;2023-12-20T10:50:57;101229.66;;;7.15;100.00
6020;BME280;3038;51.122;6.840;2023-12-20T10:53:24;101218.16;;;7.16;100.00
6020;BME280;3038;51.122;6.840;2023-12-20T10:55:55;101224.59;;;7.24;100.00
6020;BME280;3038;51.122;6.840;2023-12-20T10:58:21;101225.34;;;7.26;100.00
6020;BME280;3038;51.122;6.840;2023-12-20T11:00:49;101221.72;;;7.27;100.00
6020;BME280;3038;51.122;6.840;2023-12-20T11:03:19;101226.63;;;7.31;100.00
6020;BME280;3038;51.122;6.840;2023-12-20T11:05:59;101206.53;;;7.40;100.00
6020;BME280;3038;51.122;6.840;2023-12-20T11:08:42;101211.03;;;7.49;100.00
6020;BME280;3038;51.122;6.840;2023-12-20T11:11:26;101210.19;;;7.48;100.00
6020;BME280;3038;51.122;6.840;2023-12-20T11:14:04;101216.22;;;7.51;100.00
6020;BME280;3038;51.122;6.840;2023-12-20T11:16:32;101213.56;;;7.51;99.79
6020;BME280;3038;51.122;6.840;2023-12-20T11:19:05;101204.91;;;7.48;100.00
6020;BME280;3038;51.122;6.840;2023-12-20T11:21:30;101212.97;;;7.47;100.00
6020;BME280;3038;51.122;6.840;2023-12-20T11:23:56;101211.56;;;7.43;100.00
6020;BME280;3038;51.122;6.840;2023-12-20T11:26:28;101192.47;;;7.39;100.00
6020;BME280;3038;51.122;6.840;2023-12-20T11:29:02;101194.56;;;7.36;100.00
6020;BME280;3038;51.122;6.840;2023-12-20T11:31:40;101192.00;;;7.34;100.00
6020;BME280;3038;51.122;6.840;2023-12-20T11:34:13;101193.13;;;7.32;100.00
6020;BME280;3038;51.122;6.840;2023-12-20T11:36:39;101196.59;;;7.32;100.00
6020;BME280;3038;51.122;6.840;2023-12-20T11:39:04;101193.38;;;7.29;100.00
6020;BME280;3038;51.122;6.840;2023-12-20T11:41:34;101202.97;;;7.30;100.00
6020;BME280;3038;51.122;6.840;2023-12-20T11:43:59;101195.41;;;7.25;100.00
6020;BME280;3038;51.122;6.840;2023-12-20T11:46:26;101192.59;;;7.17;100.00
6020;BME280;3038;51.122;6.840;2023-12-20T11:48:51;101186.00;;;7.11;100.00
6020;BME280;3038;51.122;6.840;2023-12-20T11:51:17;101193.47;;;7.06;100.00
6020;BME280;3038;51.122;6.840;2023-12-20T11:53:42;101200.06;;;7.01;100.00
6020;BME280;3038;51.122;6.840;2023-12-20T11:56:08;101188.94;;;6.97;100.00
6020;BME280;3038;51.122;6.840;2023-12-20T11:58:35;101192.41;;;6.98;100.00
6020;BME280;3038;51.122;6.840;2023-12-20T12:01:02;101195.53;;;7.03;100.00
6020;BME280;3038;51.122;6.840;2023-12-20T12:03:32;101186.00;;;7.11;100.00
6020;BME280;3038;51.122;6.840;2023-12-20T12:05:57;101167.72;;;7.19;100.00
6020;BME280;3038;51.122;6.840;2023-12-20T12:08:23;101166.38;;;7.25;100.00
6020;BME280;3038;51.122;6.840;2023-12-20T12:10:49;101161.69;;;7.29;100.00
6020;BME280;3038;51.122;6.840;2023-12-20T12:13:14;101158.50;;;7.35;100.00
6020;BME280;3038;51.122;6.840;2023-12-20T12:15:40;101159.94;;;7.39;100.00
6020;BME280;3038;51.122;6.840;2023-12-20T12:18:07;101153.72;;;7.40;100.00
6020;BME280;3038;51.122;6.840;2023-12-20T12:20:32;101154.56;;;7.40;100.00
6020;BME280;3038;51.122;6.840;2023-12-20T12:23:03;101152.47;;;7.44;100.00
6020;BME280;3038;51.122;6.840;2023-12-20T12:25:29;101156.81;;;7.45;100.00
6020;BME280;3038;51.122;6.840;2023-12-20T12:27:58;101154.84;;;7.47;100.00
6020;BME280;3038;51.122;6.840;2023-12-20T12:30:23;101159.16;;;7.48;100.00
6020;BME280;3038;51.122;6.840;2023-12-20T12:32:50;101158.72;;;7.43;100.00
6020;BME280;3038;51.122;6.840;2023-12-20T12:35:16;101157.28;;;7.39;100.00
6020;BME280;3038;51.122;6.840;2023-12-20T12:37:41;101154.34;;;7.32;100.00
6020;BME280;3038;51.122;6.840;2023-12-20T12:40:09;101157.81;;;7.33;100.00
6020;BME280;3038;51.122;6.840;2023-12-20T12:42:36;101145.59;;;7.32;100.00
6020;BME280;3038;51.122;6.840;2023-12-20T12:45:02;101150.88;;;7.32;100.00
6020;BME280;3038;51.122;6.840;2023-12-20T12:47:27;101146.66;;;7.29;100.00
6020;BME280;3038;51.122;6.840;2023-12-20T12:49:53;101142.22;;;7.30;100.00
6020;BME280;3038;51.122;6.840;2023-12-20T12:52:19;101146.16;;;7.35;100.00
6020;BME280;3038;51.122;6.840;2023-12-20T12:54:45;101139.84;;;7.47;100.00
6020;BME280;3038;51.122;6.840;2023-12-20T12:57:11;101122.13;;;7.59;100.00
6020;BME280;3038;51.122;6.840;2023-12-20T12:59:36;101129.53;;;7.65;100.00
6020;BME280;3038;51.122;6.840;2023-12-20T13:02:04;101124.34;;;7.64;100.00
6020;BME280;3038;51.122;6.840;2023-12-20T13:04:29;101133.84;;;7.66;100.00
6020;BME280;3038;51.122;6.840;2023-12-20T13:06:55;101131.63;;;7.71;100.00